Terminal Aerodrome Forecast
Issued by NWS

Home | Current Version | Previous Version | Text Only | Print | Product List | Glossary On
Versions: 1 2 3 4 5 6 7 8 9 10 11 12 13 14
000
FTUS42 KMLB 312343
TAFSFB
TAF
KSFB 312343Z 0100/0124 21006KT P6SM VCSH FEW050
     FM010200 19004KT P6SM SCT100 BKN250
     FM011500 22014G20KT P6SM VCTS SCT030CB BKN120=

USA.gov is the U.S. government's official web portal to all federal, state and local government web resources and services.